Time;durP1;ratioP1;P1;durP2;ratioP2;P2;SDS_P1;SDS_P2;PMS_P1;PMS_P2;Temp;Humidity;BMP_temperature;BMP_pressure;BME280_temperature;BME280_humidity;BME280_pressure;Samples;Min_cycle;Max_cycle;Signal;HPM_P1;HPM_P2
2022/01/25 00:24:18;;;;;;;10.25;7.65;;;;;;;19.95;30.94;103317.03;7314077;19;131329;-66
2022/01/25 00:27:01;;;;;;;10.77;8.13;;;;;;;19.89;31.26;103320.59;7318818;19;130547;-66
2022/01/25 00:29:36;;;;;;;10.50;7.60;;;;;;;19.88;31.31;103324.44;7315629;19;130284;-66
2022/01/25 00:32:03;;;;;;;11.60;8.45;;;;;;;19.87;31.28;103328.28;7318260;19;130087;-66
2022/01/25 00:34:30;;;;;;;12.45;8.30;;;;;;;19.86;30.77;103326.53;7317587;19;130591;-65
2022/01/25 00:36:57;;;;;;;10.15;8.10;;;;;;;19.82;31.23;103323.31;7316854;19;130640;-66
2022/01/25 00:39:24;;;;;;;10.40;8.23;;;;;;;19.81;31.04;103327.13;7319139;19;129058;-66
2022/01/25 00:41:51;;;;;;;9.20;8.07;;;;;;;19.79;31.09;103332.03;7315937;19;128999;-66
2022/01/25 00:44:18;;;;;;;9.48;8.27;;;;;;;19.78;30.83;103324.75;7318057;19;130408;-65
2022/01/25 00:46:44;;;;;;;12.32;8.20;;;;;;;19.77;31.19;103334.13;7314362;19;130487;-66
2022/01/25 00:49:19;;;;;;;11.80;8.40;;;;;;;19.75;31.13;103322.38;7317439;19;128670;-66
2022/01/25 00:56:50;;;;;;;10.57;8.10;;;;;;;19.72;30.77;103327.44;7318072;19;131470;-65
2022/01/25 00:59:20;;;;;;;11.07;8.82;;;;;;;19.68;31.05;103318.66;7317223;19;128940;-65
2022/01/25 01:01:49;;;;;;;9.38;8.00;;;;;;;19.66;30.97;103321.63;7318085;19;129134;-66
2022/01/25 01:04:17;;;;;;;10.32;8.48;;;;;;;19.65;31.00;103314.34;7315520;19;130694;-63
2022/01/25 01:06:45;;;;;;;11.35;8.90;;;;;;;19.66;30.99;103326.31;7318041;19;131020;-63
2022/01/25 01:09:13;;;;;;;10.25;8.07;;;;;;;19.62;30.77;103320.28;7314881;19;130480;-63
2022/01/25 01:11:49;;;;;;;10.48;8.50;;;;;;;19.61;31.13;103318.56;7316777;19;128848;-63
2022/01/25 01:30:40;;;;;;;10.38;8.23;;;;;;;19.48;30.79;103324.81;7315190;19;129642;-63
2022/01/25 01:43:58;;;;;;;9.32;7.75;;;;;;;19.41;30.86;103326.63;7313082;19;129166;-63
2022/01/25 01:46:35;;;;;;;9.25;8.13;;;;;;;19.40;31.21;103321.28;7316801;19;130996;-63
2022/01/25 01:49:05;;;;;;;9.90;7.57;;;;;;;19.40;31.22;103318.50;7312596;19;131429;-63
2022/01/25 01:51:36;;;;;;;8.75;7.85;;;;;;;19.38;31.30;103318.72;7316336;19;128866;-63
2022/01/25 01:54:04;;;;;;;8.48;7.68;;;;;;;19.38;31.01;103321.50;7313552;19;128868;-63
2022/01/25 01:56:32;;;;;;;7.93;6.85;;;;;;;19.36;30.80;103320.81;7315050;19;131312;-63
2022/01/25 01:59:02;;;;;;;8.48;6.90;;;;;;;19.35;31.20;103319.09;7315860;19;131187;-63
2022/01/25 02:01:30;;;;;;;9.23;7.32;;;;;;;19.35;31.17;103324.66;7314487;19;128926;-63
2022/01/25 02:04:00;;;;;;;8.55;6.93;;;;;;;19.33;31.32;103330.38;7317146;19;129195;-63
2022/01/25 02:06:27;;;;;;;8.45;7.47;;;;;;;19.33;31.05;103327.59;7312036;19;137370;-63
2022/01/25 02:08:54;;;;;;;7.82;6.93;;;;;;;19.32;31.16;103331.41;7314266;19;130609;-63
2022/01/25 02:11:21;;;;;;;8.88;7.40;;;;;;;19.31;31.03;103335.28;7313810;19;129002;-63
2022/01/25 02:13:48;;;;;;;8.52;7.63;;;;;;;19.30;30.85;103328.00;7313198;19;128895;-66
2022/01/25 02:16:40;;;;;;;8.13;7.30;;;;;;;19.29;30.76;103331.81;7314263;19;130626;-66
2022/01/25 02:24:38;;;;;;;7.68;6.90;;;;;;;19.25;31.04;103324.94;7312970;19;129477;-65
2022/01/25 02:27:05;;;;;;;7.88;7.10;;;;;;;19.24;31.35;103328.75;7313586;19;130678;-65
2022/01/25 02:29:32;;;;;;;7.50;6.38;;;;;;;19.24;31.01;103328.75;7315593;19;130593;-64
2022/01/25 02:31:59;;;;;;;8.10;7.30;;;;;;;19.23;30.93;103321.47;7312546;19;129924;-64
2022/01/25 02:34:26;;;;;;;6.63;5.93;;;;;;;19.23;31.20;103321.47;7315160;19;129188;-64
2022/01/25 02:37:08;;;;;;;8.23;7.38;;;;;;;19.23;31.25;103318.72;7309688;19;130708;-64
2022/01/25 02:39:42;;;;;;;8.27;7.22;;;;;;;19.19;31.37;103315.44;7314136;19;131337;-64
2022/01/25 02:42:14;;;;;;;7.25;6.55;;;;;;;19.18;30.90;103321.19;7314763;19;130211;-64
2022/01/25 02:44:42;;;;;;;9.88;7.15;;;;;;;19.17;31.32;103314.75;7312461;19;128884;-64
2022/01/25 02:49:56;;;;;;;6.90;6.20;;;;;;;19.16;31.12;103312.19;7311992;19;130695;-64
2022/01/25 02:52:23;;;;;;;7.38;6.50;;;;;;;19.15;31.38;103308.53;7314251;19;131299;-64
2022/01/25 02:54:50;;;;;;;8.07;6.32;;;;;;;19.15;31.41;103313.22;7312133;19;129258;-64
2022/01/25 02:57:18;;;;;;;6.85;6.15;;;;;;;19.14;31.22;103314.28;7312164;19;131501;-64
2022/01/25 02:59:45;;;;;;;9.23;6.25;;;;;;;19.13;31.23;103309.78;7314014;19;131060;-64
2022/01/25 03:02:11;;;;;;;8.80;6.43;;;;;;;19.13;31.37;103309.78;7311871;19;128923;-64
2022/01/25 03:04:38;;;;;;;8.63;6.13;;;;;;;19.13;31.14;103309.78;7314858;19;129026;-64
2022/01/25 03:07:06;;;;;;;7.93;6.00;;;;;;;19.12;31.32;103310.84;7310734;19;131620;-64
2022/01/25 03:09:32;;;;;;;6.97;5.35;;;;;;;19.11;31.43;103312.75;7312279;19;130544;-64
2022/01/25 03:12:02;;;;;;;6.97;6.28;;;;;;;19.10;31.16;103301.84;7311083;19;130841;-64
2022/01/25 03:14:32;;;;;;;6.93;6.22;;;;;;;19.10;31.45;103304.59;7311215;19;128863;-64
2022/01/25 03:22:32;;;;;;;6.60;5.80;;;;;;;19.06;31.60;103301.38;7314242;19;129884;-64
2022/01/25 03:24:59;;;;;;;6.47;5.57;;;;;;;19.05;31.38;103297.75;7310804;19;130464;-64
2022/01/25 03:27:25;;;;;;;6.88;6.05;;;;;;;19.05;31.35;103300.50;7309975;19;131196;-64
2022/01/25 03:29:52;;;;;;;6.97;6.13;;;;;;;19.04;31.18;103296.00;7314841;19;131257;-64
2022/01/25 03:32:19;;;;;;;7.05;5.97;;;;;;;19.03;31.59;103294.28;7310724;19;128853;-64
2022/01/25 03:34:45;;;;;;;6.82;5.45;;;;;;;19.02;31.20;103288.91;7314943;19;128953;-64
2022/01/25 03:37:12;;;;;;;7.20;6.03;;;;;;;19.02;31.37;103281.47;7310090;19;132195;-64
2022/01/25 03:39:39;;;;;;;7.53;5.78;;;;;;;19.01;31.38;103276.97;7312864;19;130672;-64
2022/01/25 03:42:08;;;;;;;6.10;5.50;;;;;;;19.02;31.36;103284.25;7310680;19;129031;-64
2022/01/25 03:44:36;;;;;;;6.15;5.55;;;;;;;19.00;31.34;103288.28;7311602;19;129041;-64
2022/01/25 03:47:08;;;;;;;7.15;5.90;;;;;;;18.99;31.50;103292.09;7313532;19;130914;-64
2022/01/25 03:49:50;;;;;;;7.35;5.88;;;;;;;18.98;31.33;103291.22;7312976;19;130612;-64
2022/01/25 03:52:27;;;;;;;9.20;5.50;;;;;;;18.97;31.18;103295.03;7320434;19;129340;-64
2022/01/25 03:54:54;;;;;;;7.45;6.28;;;;;;;18.96;31.64;103298.00;7317824;19;131457;-64
2022/01/25 03:57:22;;;;;;;6.40;5.65;;;;;;;18.95;31.27;103299.06;7318675;19;130780;-64
2022/01/25 03:59:48;;;;;;;7.57;5.38;;;;;;;18.94;31.29;103297.34;7319685;19;130756;-64
2022/01/25 04:02:15;;;;;;;5.60;5.10;;;;;;;18.93;31.46;103293.72;7317741;19;130657;-64
2022/01/25 04:04:47;;;;;;;6.03;5.43;;;;;;;18.94;31.57;103289.03;7319672;19;129890;-64
2022/01/25 04:07:16;;;;;;;7.07;5.72;;;;;;;18.93;31.37;103290.94;7316750;19;130475;-64
2022/01/25 04:09:43;;;;;;;6.18;5.50;;;;;;;;;;7317522;19;131135;-64
2022/01/25 04:12:13;;;;;;;6.68;5.78;;;;;;;18.91;31.37;103301.38;7317170;19;129949;-64
2022/01/25 04:14:40;;;;;;;5.90;5.30;;;;;;;18.90;31.46;103294.94;7318150;19;129339;-64
2022/01/25 04:17:09;;;;;;;6.57;5.68;;;;;;;18.90;31.42;103288.53;7320136;19;130953;-64
2022/01/25 04:19:41;;;;;;;6.10;5.50;;;;;;;18.89;31.66;103281.28;7316604;19;130458;-64
2022/01/25 04:27:23;;;;;;;6.25;5.65;;;;;;;18.86;31.34;103285.31;7318334;19;131854;-64
2022/01/25 04:29:51;;;;;;;6.82;5.68;;;;;;;18.86;31.64;103282.53;7317246;19;130711;-64
2022/01/25 04:32:20;;;;;;;6.45;5.85;;;;;;;18.85;31.66;103291.91;7315128;19;130095;-64
2022/01/25 04:35:08;;;;;;;6.13;5.50;;;;;;;18.85;31.35;103293.78;7319490;19;129083;-64
2022/01/25 04:51:40;;;;;;;6.13;5.22;;;;;;;18.80;31.51;103274.09;7315661;19;130622;-64
2022/01/25 04:54:24;;;;;;;6.50;5.25;;;;;;;18.81;31.75;103278.59;7316345;19;128996;-64
2022/01/25 04:57:02;;;;;;;8.40;5.38;;;;;;;18.84;31.61;103283.75;7318343;19;128936;-64
2022/01/25 04:59:45;;;;;;;5.60;5.00;;;;;;;18.91;31.73;103276.41;7313951;19;131454;-64
2022/01/25 05:02:17;;;;;;;5.38;4.45;;;;;;;19.05;31.43;103277.44;7314643;19;130737;-64
2022/01/25 05:04:52;;;;;;;5.10;4.22;;;;;;;19.20;31.58;103283.00;7317676;19;128805;-64
2022/01/25 05:10:04;;;;;;;5.15;4.13;;;;;;;19.57;30.87;103269.16;7316260;19;130774;-64
2022/01/25 05:12:42;;;;;;;4.63;4.15;;;;;;;19.76;30.94;103267.69;7314733;19;131197;-64
2022/01/25 05:18:15;;;;;;;5.45;4.13;;;;;;;20.15;30.51;103258.06;7316975;19;128746;-64
2022/01/25 05:23:27;;;;;;;4.25;3.72;;;;;;;20.65;30.14;103266.34;7316136;19;130946;-64
2022/01/25 05:25:54;;;;;;;4.35;3.95;;;;;;;20.89;29.86;103259.50;7316870;19;128793;-64
2022/01/25 05:28:21;;;;;;;5.00;3.58;;;;;;;21.12;29.50;103258.31;7312931;19;129179;-64
2022/01/25 05:30:48;;;;;;;4.30;3.85;;;;;;;21.31;28.92;103258.59;7317552;19;130571;-64
2022/01/25 05:33:14;;;;;;;3.92;3.63;;;;;;;21.48;28.96;103264.66;7313862;19;130472;-64
2022/01/25 05:35:41;;;;;;;4.70;4.25;;;;;;;21.59;29.03;103271.59;7312093;19;130429;-64
2022/01/25 05:38:08;;;;;;;4.90;4.40;;;;;;;21.66;28.54;103264.97;7314096;19;129250;-64
2022/01/25 05:40:47;;;;;;;4.68;4.28;;;;;;;21.68;28.68;103267.53;7315034;19;130583;-64
2022/01/25 05:48:23;;;;;;;4.80;4.30;;;;;;;21.58;28.92;103245.69;7316542;19;128860;-64
2022/01/25 05:50:51;;;;;;;5.50;4.07;;;;;;;21.50;28.94;103243.94;7314843;19;130758;-64
2022/01/25 05:53:18;;;;;;;5.05;4.13;;;;;;;21.44;28.91;103252.25;7316051;19;130514;-64
2022/01/25 05:55:45;;;;;;;5.20;4.32;;;;;;;21.37;28.58;103252.22;7317292;19;129183;-64
2022/01/25 05:58:12;;;;;;;5.65;4.40;;;;;;;21.28;29.29;103257.09;7313589;19;129306;-60
2022/01/25 06:00:39;;;;;;;5.32;4.30;;;;;;;21.20;29.03;103241.44;7316791;19;130748;-64
2022/01/25 06:03:07;;;;;;;6.13;4.32;;;;;;;21.13;29.50;103246.13;7313455;19;130546;-64
2022/01/25 06:05:34;;;;;;;5.22;4.18;;;;;;;21.03;29.19;103242.88;7315469;19;128785;-65
2022/01/25 06:08:03;;;;;;;4.75;4.35;;;;;;;20.96;29.82;103245.63;7313339;19;129777;-64
2022/01/25 06:10:30;;;;;;;4.82;4.38;;;;;;;20.87;29.67;103250.47;7311877;19;131418;-64
2022/01/25 06:12:57;;;;;;;5.03;4.50;;;;;;;20.80;29.75;103243.16;7313339;19;131285;-64
2022/01/25 06:15:25;;;;;;;5.00;4.50;;;;;;;20.72;29.61;103236.69;7313390;19;128758;-64
2022/01/25 06:17:52;;;;;;;5.90;3.92;;;;;;;20.67;29.65;103244.75;7315084;19;129062;-65
2022/01/25 06:20:19;;;;;;;4.97;4.47;;;;;;;20.59;29.62;103247.72;7308236;19;131501;-64
2022/01/25 06:22:46;;;;;;;7.53;5.03;;;;;;;20.52;29.65;103246.78;7308437;19;131877;-64
2022/01/25 06:25:13;;;;;;;5.93;5.18;;;;;;;20.45;29.91;103252.31;7312740;19;129663;-64
2022/01/25 06:27:43;;;;;;;24.25;5.32;;;;;;;20.41;29.96;103246.28;7314960;19;128815;-64
2022/01/25 06:30:14;;;;;;;5.68;5.07;;;;;;;20.41;29.70;103251.00;7312861;19;131145;-64
2022/01/25 06:32:41;;;;;;;5.65;4.95;;;;;;;20.42;30.32;103258.28;7313290;19;130639;-64
2022/01/25 06:35:08;;;;;;;10.65;4.20;;;;;;;20.45;29.81;103252.31;7316094;19;128817;-64
2022/01/25 06:37:35;;;;;;;7.63;4.85;;;;;;;20.53;29.73;103252.16;7311580;19;129271;-64
2022/01/25 06:40:05;;;;;;;4.55;4.15;;;;;;;20.68;29.56;103262.28;7314509;19;131060;-64
2022/01/25 06:42:31;;;;;;;4.55;3.78;;;;;;;20.86;29.40;103259.91;7309081;19;131500;-64
2022/01/25 06:45:04;;;;;;;6.75;4.45;;;;;;;21.08;29.66;103251.44;7314203;19;129301;-64
2022/01/25 06:47:31;;;;;;;4.45;3.92;;;;;;;21.27;29.09;103254.53;7309689;19;129351;-64
2022/01/25 06:49:57;;;;;;;4.88;3.90;;;;;;;21.44;29.24;103263.38;7312722;19;130540;-64
2022/01/25 06:52:24;;;;;;;4.80;3.85;;;;;;;21.61;28.92;103256.38;7314490;19;131433;-64
2022/01/25 06:54:51;;;;;;;4.15;3.75;;;;;;;21.78;28.88;103258.78;7313592;19;128921;-64
2022/01/25 06:57:18;;;;;;;5.03;4.05;;;;;;;21.94;28.83;103268.66;7315093;19;128894;-64
2022/01/25 06:59:45;;;;;;;4.28;3.92;;;;;;;22.08;28.31;103266.78;7311532;19;130610;-64
2022/01/25 07:02:12;;;;;;;5.18;3.58;;;;;;;22.21;28.20;103260.38;7315180;19;131553;-63
2022/01/25 07:04:40;;;;;;;5.30;3.63;;;;;;;22.30;28.22;103275.81;7311734;19;128884;-64
2022/01/25 07:07:06;;;;;;;3.70;3.38;;;;;;;22.38;28.26;103277.53;7314988;19;128996;-64
2022/01/25 07:09:35;;;;;;;6.00;3.70;;;;;;;22.42;28.06;103279.66;7311312;19;131602;-64
2022/01/25 07:12:03;;;;;;;4.28;3.42;;;;;;;22.47;27.71;103283.75;7314640;19;130484;-64
2022/01/25 07:14:30;;;;;;;6.35;4.00;;;;;;;22.48;28.00;103277.09;7314845;19;128981;-64
2022/01/25 07:16:57;;;;;;;5.03;3.90;;;;;;;22.50;27.79;103280.53;7312823;19;129777;-63
2022/01/25 07:19:25;;;;;;;4.13;3.70;;;;;;;22.50;28.11;103277.75;7313355;19;131443;-64
2022/01/25 07:21:53;;;;;;;5.82;3.53;;;;;;;22.51;27.69;103277.50;7310369;19;130381;-64
2022/01/25 07:24:20;;;;;;;4.85;3.67;;;;;;;22.50;27.99;103280.53;7312371;19;129690;-64
2022/01/25 07:26:47;;;;;;;4.22;3.83;;;;;;;22.50;28.17;103280.53;7309415;19;132913;-64
2022/01/25 07:29:14;;;;;;;4.72;3.70;;;;;;;22.52;28.17;103279.22;7312846;19;131429;-65
2022/01/25 07:31:41;;;;;;;5.72;3.50;;;;;;;22.53;27.95;103280.06;7309495;19;131034;-64
2022/01/25 07:34:13;;;;;;;5.60;4.13;;;;;;;22.54;28.16;103281.78;7313244;19;129244;-64
2022/01/25 07:36:47;;;;;;;6.45;3.90;;;;;;;22.53;27.72;103274.50;7313750;19;129209;-64
2022/01/25 07:39:20;;;;;;;7.05;3.80;;;;;;;22.50;27.71;103264.63;7311578;19;130779;-64
2022/01/25 07:42:03;;;;;;;6.50;3.83;;;;;;;22.47;27.96;103275.38;7314263;19;131491;-64
2022/01/25 07:44:39;;;;;;;8.38;3.70;;;;;;;22.42;27.85;103278.81;7311313;19;129181;-64
2022/01/25 07:47:08;;;;;;;4.00;3.50;;;;;;;22.36;27.82;103277.75;7313655;19;129075;-64
2022/01/25 07:49:41;;;;;;;6.03;3.80;;;;;;;22.29;28.38;103271.28;7311101;19;130993;-64
2022/01/25 07:52:13;;;;;;;3.90;3.50;;;;;;;22.23;28.02;103277.75;7312498;19;130515;-64
2022/01/25 07:54:39;;;;;;;4.20;3.80;;;;;;;22.16;28.08;103268.47;7313823;19;128865;-64
2022/01/25 07:57:06;;;;;;;7.13;4.15;;;;;;;22.08;28.37;103270.41;7311542;19;129203;-64
2022/01/25 07:59:33;;;;;;;4.35;3.95;;;;;;;22.00;28.62;103286.47;7314354;19;131277;-64
2022/01/25 08:01:59;;;;;;;5.10;3.80;;;;;;;21.89;28.74;103279.59;7308919;19;131449;-64
2022/01/25 08:04:30;;;;;;;4.22;3.78;;;;;;;21.80;28.87;103281.72;7312891;19;128933;-64
2022/01/25 08:06:59;;;;;;;6.00;3.90;;;;;;;21.71;28.77;103283.84;7308912;19;128795;-64
2022/01/25 08:09:29;;;;;;;6.82;3.45;;;;;;;21.62;29.06;103280.38;7310904;19;131385;-64
2022/01/25 08:11:59;;;;;;;4.65;4.20;;;;;;;21.53;28.75;103276.06;7309816;19;131651;-64
2022/01/25 08:14:30;;;;;;;7.03;4.10;;;;;;;21.46;28.78;103275.19;7310889;19;128890;-63
2022/01/25 08:16:57;;;;;;;4.72;3.95;;;;;;;21.37;29.34;103277.28;7312506;19;130056;-63
2022/01/25 08:19:36;;;;;;;4.85;4.35;;;;;;;21.29;29.20;103285.81;7307307;19;129729;-64
2022/01/25 08:22:05;;;;;;;5.85;4.15;;;;;;;21.19;29.10;103298.16;7312736;19;131952;-63
2022/01/25 08:24:31;;;;;;;4.63;4.15;;;;;;;21.13;29.14;103299.00;7309547;19;128873;-63
2022/01/25 08:27:06;;;;;;;6.43;3.58;;;;;;;21.08;29.31;103295.97;7312677;19;128837;-63
2022/01/25 08:29:34;;;;;;;5.05;4.00;;;;;;;21.01;29.79;103306.22;7308952;19;131335;-63
2022/01/25 08:32:06;;;;;;;4.50;4.10;;;;;;;20.97;29.36;103304.91;7309734;19;129685;-63
2022/01/25 08:34:42;;;;;;;4.78;3.97;;;;;;;20.89;29.87;103301.22;7313223;19;128837;-63
2022/01/25 08:37:09;;;;;;;4.53;4.10;;;;;;;20.86;29.89;103296.06;7316437;19;128876;-63
2022/01/25 08:39:49;;;;;;;4.20;3.78;;;;;;;20.85;29.76;103301.84;7316360;19;130426;-63
2022/01/25 08:42:26;;;;;;;5.45;3.95;;;;;;;20.84;29.72;103306.53;7316025;19;130539;-63
2022/01/25 08:44:55;;;;;;;5.07;3.70;;;;;;;20.86;29.73;103304.41;7318120;19;128870;-63
2022/01/25 08:47:33;;;;;;;3.47;3.15;;;;;;;20.92;29.48;103308.31;7315972;19;129275;-63
2022/01/25 08:50:04;;;;;;;3.83;3.50;;;;;;;20.94;29.77;103299.72;7316762;19;130546;-63
2022/01/25 08:52:34;;;;;;;5.10;3.67;;;;;;;20.99;29.74;103300.00;7318846;19;129626;-63
2022/01/25 08:55:23;;;;;;;4.75;3.45;;;;;;;21.04;29.61;103303.03;7315496;19;128948;-63
2022/01/25 08:58:02;;;;;;;4.05;3.45;;;;;;;21.09;29.71;103306.03;7318953;19;128886;-63
2022/01/25 09:00:29;;;;;;;3.70;3.40;;;;;;;21.13;29.42;103298.13;7316506;19;130462;-63
2022/01/25 09:02:56;;;;;;;4.07;3.45;;;;;;;21.16;29.37;103290.25;7318194;19;131226;-63
2022/01/25 09:05:23;;;;;;;5.75;3.63;;;;;;;21.20;29.40;103288.75;7318292;19;128993;-64
2022/01/25 09:07:50;;;;;;;6.50;3.20;;;;;;;21.23;29.47;103279.16;7310453;19;129038;-63
2022/01/25 09:10:16;;;;;;;4.18;3.42;;;;;;;21.27;29.45;103297.13;7316549;19;131953;-63
2022/01/25 09:12:43;;;;;;;3.92;3.53;;;;;;;21.31;29.19;103290.09;7314347;19;131264;-63
2022/01/25 09:15:10;;;;;;;3.30;3.00;;;;;;;21.35;29.35;103296.13;7318035;19;128881;-63
2022/01/25 09:17:37;;;;;;;5.05;3.72;;;;;;;21.36;29.39;103292.25;7308160;19;129021;-64
2022/01/25 09:20:05;;;;;;;5.47;4.30;;;;;;;21.37;29.53;103292.03;7315675;19;131436;-64
2022/01/25 09:22:31;;;;;;;5.78;4.47;;;;;;;21.42;29.67;103302.56;7314872;19;131315;-63
2022/01/25 09:25:18;;;;;;;6.20;4.22;;;;;;;21.48;29.59;103298.97;7316026;19;130149;-63
2022/01/25 09:27:46;;;;;;;4.75;4.25;;;;;;;21.59;29.24;103305.03;7317900;19;129192;-63
2022/01/25 09:30:13;;;;;;;7.45;4.35;;;;;;;21.70;28.87;103309.13;7314503;19;131597;-63
2022/01/25 09:32:40;;;;;;;7.18;4.57;;;;;;;21.77;28.58;103299.72;7317271;19;131491;-64
2022/01/25 09:35:07;;;;;;;6.20;4.10;;;;;;;21.83;28.29;103310.03;7315259;19;131340;-63
2022/01/25 09:37:34;;;;;;;5.40;4.18;;;;;;;21.89;28.25;103310.25;7317216;19;129112;-63
2022/01/25 09:40:01;;;;;;;6.43;4.80;;;;;;;21.94;28.11;103310.47;7314036;19;131394;-63
2022/01/25 09:42:29;;;;;;;5.55;4.60;;;;;;;21.97;28.20;103315.63;7317799;19;130503;-63
2022/01/25 09:44:58;;;;;;;4.22;3.83;;;;;;;22.01;28.43;103311.34;7313720;19;130738;-63
2022/01/25 09:47:25;;;;;;;5.65;4.15;;;;;;;22.06;28.24;103314.34;7315465;19;129812;-63
2022/01/25 09:49:53;;;;;;;6.50;4.35;;;;;;;22.11;28.14;103310.94;7313898;19;130771;-62
2022/01/25 09:52:20;;;;;;;5.03;4.00;;;;;;;22.16;28.28;103307.50;7315484;19;131032;-63
2022/01/25 09:54:59;;;;;;;6.57;4.07;;;;;;;22.21;28.01;103316.13;7314776;19;129114;-63
2022/01/25 09:57:26;;;;;;;5.57;3.92;;;;;;;22.23;28.28;103317.63;7315000;19;129179;-63
2022/01/25 09:59:54;;;;;;;4.80;3.88;;;;;;;22.26;28.12;103322.78;7316918;19;130714;-63
2022/01/25 10:03:01;;;;;;;4.97;3.80;;;;;;;22.30;28.11;103326.00;7313628;19;131403;-63
2022/01/25 10:05:35;;;;;;;5.63;3.63;;;;;;;22.32;28.50;103318.28;7317166;19;129051;-63
2022/01/25 10:08:09;;;;;;;5.25;3.70;;;;;;;22.33;28.61;103325.56;7314433;19;129324;-63
2022/01/25 10:10:42;;;;;;;5.43;3.30;;;;;;;22.32;28.11;103323.84;7315597;19;132145;-64
2022/01/25 10:13:17;;;;;;;5.22;3.50;;;;;;;22.30;28.29;103330.72;7312842;19;130431;-63
2022/01/25 10:15:45;;;;;;;4.13;3.72;;;;;;;22.26;28.41;103327.50;7314759;19;128839;-63
2022/01/25 10:18:19;;;;;;;5.70;3.60;;;;;;;22.21;28.46;103321.69;7316862;19;128943;-63
2022/01/25 10:20:49;;;;;;;4.28;3.40;;;;;;;22.18;28.41;103330.44;7313247;19;131891;-63
2022/01/25 10:23:19;;;;;;;4.53;3.33;;;;;;;22.13;28.66;103331.09;7316233;19;130701;-63
2022/01/25 10:25:48;;;;;;;4.80;3.90;;;;;;;22.07;28.52;103327.22;7312518;19;129088;-63
2022/01/25 10:28:21;;;;;;;4.57;3.63;;;;;;;22.03;28.73;103331.50;7316250;19;128802;-63
2022/01/25 10:30:52;;;;;;;4.22;3.30;;;;;;;21.97;29.05;103329.56;7311390;19;130549;-63
2022/01/25 10:33:20;;;;;;;6.95;3.60;;;;;;;21.92;29.27;103329.31;7314887;19;132111;-63
2022/01/25 10:35:47;;;;;;;6.00;3.97;;;;;;;21.88;29.27;103331.69;7313632;19;131029;-63
2022/01/25 10:38:27;;;;;;;4.15;3.83;;;;;;;21.82;29.36;103330.59;7315310;19;129058;-63
2022/01/25 10:41:09;;;;;;;5.55;4.45;;;;;;;21.78;28.96;103329.31;7315535;19;130702;-63
2022/01/25 10:43:43;;;;;;;6.05;4.22;;;;;;;21.73;29.27;103330.97;7313232;19;129036;-63
2022/01/25 10:46:11;;;;;;;4.47;3.80;;;;;;;21.70;29.59;103332.28;7315882;19;128930;-63
2022/01/25 10:48:40;;;;;;;5.43;4.05;;;;;;;21.68;29.37;103326.03;7311203;19;129064;-63
2022/01/25 10:51:24;;;;;;;4.15;3.72;;;;;;;21.64;29.66;103327.56;7313792;19;130780;-63
2022/01/25 10:54:21;;;;;;;6.40;3.70;;;;;;;21.60;29.40;103326.25;7312487;19;130547;-63
2022/01/25 10:56:53;;;;;;;6.43;3.77;;;;;;;21.52;29.51;103318.91;7313505;19;128846;-63
2022/01/25 10:59:24;;;;;;;4.32;3.47;;;;;;;21.48;29.88;103317.56;7314062;19;128988;-63
2022/01/25 11:02:03;;;;;;;4.60;3.83;;;;;;;21.46;29.82;103315.00;7311560;19;131414;-63
2022/01/25 11:04:34;;;;;;;5.13;3.88;;;;;;;21.44;29.84;103311.56;7315370;19;131411;-63
2022/01/25 11:07:08;;;;;;;5.40;3.63;;;;;;;21.41;29.84;103309.22;7311690;19;131534;-63
2022/01/25 11:09:43;;;;;;;4.00;3.60;;;;;;;21.43;29.68;103314.56;7314660;19;128780;-63
2022/01/25 11:12:15;;;;;;;3.85;3.55;;;;;;;21.44;29.67;103316.28;7312160;19;130507;-63
2022/01/25 11:14:57;;;;;;;4.03;3.58;;;;;;;21.49;29.98;103319.31;7313381;19;130525;-63
2022/01/25 11:17:28;;;;;;;4.65;3.50;;;;;;;21.54;29.92;103315.94;7314307;19;128808;-63
2022/01/25 11:19:55;;;;;;;4.20;3.53;;;;;;;21.60;29.87;103317.88;7311818;19;130644;-63
2022/01/25 11:22:23;;;;;;;5.22;4.13;;;;;;;21.65;30.02;103318.13;7313686;19;131100;-63
2022/01/25 11:24:59;;;;;;;4.80;3.67;;;;;;;21.69;30.00;103305.47;7311497;19;130374;-63
2022/01/25 11:27:28;;;;;;;8.63;4.32;;;;;;;21.71;29.92;103306.13;7315111;19;129427;-63
2022/01/25 11:30:03;;;;;;;7.93;4.18;;;;;;;21.75;29.82;103318.59;7311285;19;129135;-63
2022/01/25 11:32:34;;;;;;;7.03;4.18;;;;;;;21.77;29.60;103312.78;7311082;19;130555;-63
2022/01/25 11:35:04;;;;;;;4.53;3.75;;;;;;;21.76;29.61;103317.53;7311721;19;130482;-63
2022/01/25 11:37:37;;;;;;;8.75;4.40;;;;;;;21.75;29.64;103306.56;7313437;19;129717;-63
2022/01/25 11:40:25;;;;;;;5.82;4.18;;;;;;;21.73;29.61;103305.91;7314139;19;128927;-63
2022/01/25 11:42:56;;;;;;;4.85;4.35;;;;;;;21.70;29.64;103309.97;7311335;19;130816;-63
2022/01/25 11:45:26;;;;;;;6.72;4.63;;;;;;;21.68;29.74;103312.13;7313836;19;130671;-63
2022/01/25 11:47:55;;;;;;;6.22;4.38;;;;;;;21.64;29.58;103316.41;7311034;19;129000;-63
2022/01/25 11:50:49;;;;;;;5.20;4.70;;;;;;;21.62;29.81;103319.38;7314405;19;128829;-63
2022/01/25 11:53:18;;;;;;;7.00;5.10;;;;;;;21.60;29.87;103318.72;7310259;19;131174;-63
2022/01/25 11:55:49;;;;;;;7.95;4.60;;;;;;;21.57;29.59;103309.94;7312383;19;130519;-63
2022/01/25 11:58:25;;;;;;;6.28;5.40;;;;;;;21.57;29.67;103309.94;7310403;19;128803;-63
2022/01/25 12:00:54;;;;;;;4.33;3.93;;;;;;;21.59;29.97;103305.03;7311542;19;129039;-63
2022/01/25 12:03:47;;;;;;;4.80;4.30;;;;;;;21.63;29.48;103306.31;7312496;19;131254;-63
2022/01/25 12:06:22;;;;;;;5.15;4.28;;;;;;;21.67;29.75;103304.81;7309502;19;130575;-63
2022/01/25 12:12:07;;;;;;;6.47;4.38;;;;;;;21.78;29.30;103298.66;7316479;19;129789;-63
2022/01/25 12:14:52;;;;;;;4.68;4.28;;;;;;;21.83;29.51;103293.31;7318298;19;130758;-63
2022/01/25 12:17:23;;;;;;;5.47;4.40;;;;;;;21.87;29.68;103295.69;7319414;19;130553;-63
2022/01/25 12:19:58;;;;;;;5.45;4.28;;;;;;;21.91;29.45;103288.63;7316659;19;129436;-63
2022/01/25 12:22:37;;;;;;;5.63;4.78;;;;;;;21.96;29.78;103291.63;7319499;19;129011;-62
2022/01/25 12:25:36;;;;;;;7.43;4.32;;;;;;;22.00;29.14;103284.56;7317713;19;131368;-62
2022/01/25 12:28:10;;;;;;;5.78;4.93;;;;;;;22.01;29.21;103286.28;7316794;19;130548;-63
2022/01/25 12:30:40;;;;;;;6.07;5.43;;;;;;;22.03;29.10;103284.09;7319403;19;129404;-63
2022/01/25 12:33:08;;;;;;;6.07;5.45;;;;;;;22.04;28.76;103287.78;7315677;19;129158;-63
2022/01/25 12:35:47;;;;;;;5.53;5.03;;;;;;;22.05;28.49;103290.34;7317489;19;130557;-63
2022/01/25 12:38:15;;;;;;;6.03;5.05;;;;;;;22.06;28.60;103285.63;7313285;19;130683;-63
2022/01/25 12:41:00;;;;;;;6.15;5.55;;;;;;;22.09;28.52;103291.63;7318340;19;129884;-63
2022/01/25 12:43:38;;;;;;;6.80;5.68;;;;;;;22.11;28.57;103286.72;7314784;19;131372;-63
2022/01/25 12:46:19;;;;;;;5.30;4.80;;;;;;;22.15;28.75;103283.50;7315984;19;131407;-63
2022/01/25 12:48:48;;;;;;;5.95;5.38;;;;;;;22.19;28.46;103290.34;7317059;19;131413;-63
2022/01/25 12:51:26;;;;;;;6.35;5.32;;;;;;;22.20;28.68;103286.50;7314415;19;129074;-63
2022/01/25 12:53:56;;;;;;;6.85;5.65;;;;;;;22.23;28.40;103283.31;7316946;19;129026;-63
2022/01/25 12:56:28;;;;;;;6.20;5.30;;;;;;;22.27;28.52;103288.25;7314103;19;130773;-63
2022/01/25 12:58:58;;;;;;;7.25;4.60;;;;;;;22.30;28.26;103286.13;7316827;19;130356;-63
2022/01/25 13:01:27;;;;;;;6.85;5.75;;;;;;;22.33;28.38;103280.13;7313153;19;128921;-64
2022/01/25 13:04:00;;;;;;;5.70;5.15;;;;;;;22.34;28.27;103271.53;7316652;19;129002;-63
2022/01/25 13:06:30;;;;;;;5.90;5.30;;;;;;;22.34;28.35;103271.53;7314301;19;130688;-63
2022/01/25 13:16:59;;;;;;;5.80;5.30;;;;;;;22.34;28.36;103249.22;7318514;19;130714;-63
2022/01/25 13:19:38;;;;;;;6.32;5.53;;;;;;;22.35;28.02;103250.94;7315080;19;131381;-63
2022/01/25 13:22:12;;;;;;;5.78;5.18;;;;;;;22.36;28.06;103255.44;7316888;19;129094;-63
2022/01/25 13:24:58;;;;;;;6.10;5.55;;;;;;;22.39;28.06;103241.06;7315453;19;128804;-63
2022/01/25 13:27:30;;;;;;;6.22;5.60;;;;;;;22.41;28.28;103238.91;7316430;19;130670;-63